Wetterdaten: Woche 10.06.13 - 16.06.13 (KW24)
Datum Zeit Temp. A. Feuchte A. Luftdruck Regen Wind Richtung Taupunkt Windchill Windben
10.06.2013 00:00 13,3 C 85 % 1010,1 hPa 0,0 l/m 3,7 km/h (1 Bft) N-NW 10,7 C 13,3 C 7,1 km/h (2 Bft)
10.06.2013 01:00 11,6 C 88 % 1010,2 hPa 0,0 l/m 2,4 km/h (1 Bft) N 9,7 C 11,6 C 5,3 km/h (1 Bft)
10.06.2013 02:00 10,0 C 91 % 1010,3 hPa 0,0 l/m 2,0 km/h (1 Bft) N-NO 8,6 C 10,0 C 3,9 km/h (1 Bft)
10.06.2013 03:00 8,9 C 93 % 1010,1 hPa 0,0 l/m 0,4 km/h (0 Bft) N-NW 7,8 C 8,9 C 1,1 km/h (0 Bft)
10.06.2013 04:00 8,6 C 94 % 1009,8 hPa 0,0 l/m 3,2 km/h (1 Bft) N-NW 7,7 C 8,6 C 6,3 km/h (2 Bft)
10.06.2013 05:00 8,2 C 94 % 1010,3 hPa 0,0 l/m 0,0 km/h (0 Bft) N 7,3 C 8,2 C 0,0 km/h (0 Bft)
10.06.2013 06:00 9,6 C 93 % 1010,3 hPa 0,0 l/m 1,5 km/h (1 Bft) N-NO 8,4 C 9,6 C 2,9 km/h (1 Bft)
10.06.2013 07:00 11,4 C 88 % 1010,6 hPa 0,2 l/m 3,8 km/h (1 Bft) N-NO 9,5 C 11,4 C 7,3 km/h (2 Bft)
10.06.2013 08:00 13,3 C 83 % 1011,0 hPa 0,0 l/m 4,3 km/h (1 Bft) N 10,5 C 13,2 C 8,5 km/h (2 Bft)
10.06.2013 09:00 14,9 C 80 % 1010,9 hPa 0,0 l/m 7,7 km/h (2 Bft) N 11,4 C 14,2 C 13,6 km/h (3 Bft)
10.06.2013 10:00 15,8 C 77 % 1011,1 hPa 0,0 l/m 7,5 km/h (2 Bft) N-NW 11,7 C 15,2 C 14,2 km/h (3 Bft)
10.06.2013 11:00 16,3 C 73 % 1011,3 hPa 0,0 l/m 4,7 km/h (1 Bft) N-NW 11,5 C 16,3 C 10,1 km/h (2 Bft)
10.06.2013 12:00 18,4 C 63 % 1011,3 hPa 0,0 l/m 4,6 km/h (1 Bft) N-NW 11,2 C 18,4 C 10,6 km/h (2 Bft)
10.06.2013 13:00 19,3 C 57 % 1011,1 hPa 0,0 l/m 3,4 km/h (1 Bft) N-NW 10,5 C 19,3 C 9,3 km/h (2 Bft)
10.06.2013 14:00 20,3 C 52 % 1011,0 hPa 0,0 l/m 4,4 km/h (1 Bft) N-NO 10,2 C 20,3 C 10,8 km/h (2 Bft)
10.06.2013 15:00 21,0 C 48 % 1010,9 hPa 0,0 l/m 5,4 km/h (2 Bft) N-NO 9,7 C 20,8 C 11,7 km/h (2 Bft)
10.06.2013 16:00 21,3 C 47 % 1010,8 hPa 0,0 l/m 5,9 km/h (2 Bft) N-NW 9,5 C 21,1 C 13,2 km/h (3 Bft)
10.06.2013 17:00 21,4 C 49 % 1010,8 hPa 0,0 l/m 4,5 km/h (1 Bft) O-NO 10,1 C 21,4 C 9,8 km/h (2 Bft)
10.06.2013 18:00 21,3 C 50 % 1010,8 hPa 0,0 l/m 5,2 km/h (1 Bft) N-NO 10,3 C 21,2 C 10,1 km/h (2 Bft)
10.06.2013 19:00 20,8 C 53 % 1011,0 hPa 0,0 l/m 4,5 km/h (1 Bft) N-NO 10,7 C 20,8 C 7,9 km/h (2 Bft)
10.06.2013 20:00 19,8 C 58 % 1011,2 hPa 0,0 l/m 0,6 km/h (0 Bft) N 11,3 C 19,8 C 1,2 km/h (1 Bft)
10.06.2013 21:00 16,1 C 72 % 1011,7 hPa 0,0 l/m 0,0 km/h (0 Bft) N 10,9 C 16,1 C 0,0 km/h (0 Bft)
10.06.2013 22:00 12,9 C 84 % 1012,3 hPa 0,0 l/m 0,3 km/h (0 Bft) SW 10,2 C 12,9 C 1,1 km/h (0 Bft)
10.06.2013 23:00 11,6 C 85 % 1013,0 hPa 0,0 l/m 0,1 km/h (0 Bft) N 9,3 C 11,6 C 0,7 km/h (0 Bft)
11.06.2013 00:00 10,2 C 90 % 1013,4 hPa 0,0 l/m 0,0 km/h (0 Bft) N 8,5 C 10,2 C 0,0 km/h (0 Bft)
11.06.2013 01:00 10,1 C 93 % 1013,7 hPa 0,0 l/m 0,0 km/h (0 Bft) N 9,0 C 10,1 C 0,0 km/h (0 Bft)
11.06.2013 02:00 9,4 C 94 % 1013,8 hPa 0,0 l/m 0,0 km/h (0 Bft) N 8,5 C 9,4 C 0,0 km/h (0 Bft)
11.06.2013 03:00 8,6 C 95 % 1014,0 hPa 0,0 l/m 0,0 km/h (0 Bft) N 7,8 C 8,6 C 0,0 km/h (0 Bft)
11.06.2013 04:00 8,2 C 96 % 1014,4 hPa 0,0 l/m 0,0 km/h (0 Bft) N 7,5 C 8,2 C 0,0 km/h (0 Bft)
11.06.2013 05:00 8,9 C 96 % 1014,7 hPa 0,0 l/m 0,0 km/h (0 Bft) N 8,4 C 8,9 C 0,0 km/h (0 Bft)
11.06.2013 06:00 9,8 C 97 % 1015,0 hPa 0,0 l/m 0,1 km/h (0 Bft) N 9,3 C 9,8 C 0,3 km/h (0 Bft)
11.06.2013 07:00 11,0 C 96 % 1015,4 hPa 0,0 l/m 1,0 km/h (0 Bft) W-NW 10,3 C 11,0 C 3,2 km/h (1 Bft)
11.06.2013 08:00 12,9 C 90 % 1015,8 hPa 0,0 l/m 1,4 km/h (1 Bft) SW 11,3 C 12,9 C 4,5 km/h (1 Bft)
11.06.2013 09:00 15,8 C 79 % 1016,1 hPa 0,0 l/m 2,5 km/h (1 Bft) NW 12,2 C 15,8 C 6,0 km/h (2 Bft)
11.06.2013 10:00 17,4 C 72 % 1016,3 hPa 0,0 l/m 2,6 km/h (1 Bft) NO 12,3 C 17,4 C 7,9 km/h (2 Bft)
11.06.2013 11:00 19,1 C 64 % 1016,4 hPa 0,0 l/m 4,7 km/h (1 Bft) SW 12,2 C 18,9 C 10,0 km/h (2 Bft)
11.06.2013 12:00 20,1 C 61 % 1016,4 hPa 0,0 l/m 3,6 km/h (1 Bft) NW 12,4 C 20,1 C 8,4 km/h (2 Bft)
11.06.2013 13:00 21,2 C 56 % 1016,4 hPa 0,0 l/m 4,1 km/h (1 Bft) W-SW 12,0 C 21,2 C 10,3 km/h (2 Bft)
11.06.2013 14:00 21,5 C 53 % 1016,5 hPa 0,0 l/m 4,8 km/h (1 Bft) W 11,5 C 21,5 C 12,6 km/h (3 Bft)
11.06.2013 15:00 20,8 C 55 % 1016,4 hPa 0,0 l/m 4,3 km/h (1 Bft) W-SW 11,5 C 20,8 C 10,2 km/h (2 Bft)
11.06.2013 16:00 20,9 C 54 % 1016,3 hPa 0,0 l/m 3,7 km/h (1 Bft) NW 11,2 C 20,9 C 10,6 km/h (2 Bft)
11.06.2013 17:00 21,7 C 49 % 1016,1 hPa 0,0 l/m 3,6 km/h (1 Bft) W 10,5 C 21,7 C 10,4 km/h (2 Bft)
11.06.2013 18:00 21,6 C 47 % 1016,0 hPa 0,0 l/m 3,1 km/h (1 Bft) N-NW 9,9 C 21,6 C 7,4 km/h (2 Bft)
11.06.2013 19:00 21,1 C 46 % 1016,2 hPa 0,0 l/m 2,4 km/h (1 Bft) W-NW 9,1 C 21,1 C 6,4 km/h (2 Bft)
11.06.2013 20:00 20,2 C 51 % 1016,5 hPa 0,0 l/m 0,5 km/h (0 Bft) N 9,7 C 20,2 C 1,9 km/h (1 Bft)
11.06.2013 21:00 16,0 C 71 % 1017,0 hPa 0,0 l/m 0,0 km/h (0 Bft) N 10,6 C 16,0 C 0,0 km/h (0 Bft)
11.06.2013 22:00 12,2 C 86 % 1017,4 hPa 0,0 l/m 0,0 km/h (0 Bft) N 9,9 C 12,2 C 0,0 km/h (0 Bft)
11.06.2013 23:00 10,1 C 91 % 1017,6 hPa 0,0 l/m 0,3 km/h (0 Bft) N-NO 8,6 C 10,1 C 1,1 km/h (0 Bft)
12.06.2013 00:00 8,7 C 93 % 1017,9 hPa 0,0 l/m 0,1 km/h (0 Bft) N 7,5 C 8,7 C 0,4 km/h (0 Bft)
12.06.2013 01:00 8,2 C 94 % 1018,1 hPa 0,0 l/m 0,0 km/h (0 Bft) N 7,3 C 8,2 C 0,0 km/h (0 Bft)
12.06.2013 02:00 7,6 C 95 % 1018,3 hPa 0,0 l/m 0,0 km/h (0 Bft) N 6,8 C 7,6 C 0,0 km/h (0 Bft)
12.06.2013 03:00 6,9 C 95 % 1018,4 hPa 0,0 l/m 0,0 km/h (0 Bft) N 6,2 C 6,9 C 0,0 km/h (0 Bft)
12.06.2013 04:00 6,5 C 95 % 1018,3 hPa 0,0 l/m 0,0 km/h (0 Bft) N 5,8 C 6,5 C 0,0 km/h (0 Bft)
12.06.2013 05:00 6,4 C 96 % 1018,4 hPa 0,0 l/m 0,0 km/h (0 Bft) N 5,8 C 6,4 C 0,0 km/h (0 Bft)
12.06.2013 06:00 8,0 C 96 % 1018,5 hPa 0,0 l/m 0,0 km/h (0 Bft) N 7,4 C 8,0 C 0,0 km/h (0 Bft)
12.06.2013 07:00 12,1 C 94 % 1018,6 hPa 0,0 l/m 0,0 km/h (0 Bft) N 11,1 C 12,1 C 0,0 km/h (0 Bft)
12.06.2013 08:00 17,2 C 75 % 1018,6 hPa 0,0 l/m 1,7 km/h (1 Bft) O-SO 12,7 C 17,2 C 4,4 km/h (1 Bft)
12.06.2013 09:00 20,0 C 63 % 1018,5 hPa 0,0 l/m 4,2 km/h (1 Bft) S-SO 12,8 C 20,0 C 8,7 km/h (2 Bft)
12.06.2013 10:00 21,7 C 56 % 1018,3 hPa 0,0 l/m 5,0 km/h (1 Bft) S-SW 12,4 C 21,7 C 11,3 km/h (2 Bft)
12.06.2013 11:00 22,7 C 46 % 1018,3 hPa 0,0 l/m 5,1 km/h (1 Bft) S-SO 10,5 C 22,7 C 12,1 km/h (2 Bft)
12.06.2013 12:00 23,3 C 46 % 1018,0 hPa 0,0 l/m 6,0 km/h (2 Bft) SW 10,9 C 23,2 C 12,6 km/h (3 Bft)
12.06.2013 13:00 24,1 C 42 % 1017,6 hPa 0,0 l/m 5,9 km/h (2 Bft) S 10,4 C 24,0 C 13,0 km/h (3 Bft)
12.06.2013 14:00 24,5 C 43 % 1017,2 hPa 0,0 l/m 7,1 km/h (2 Bft) SW 11,0 C 24,2 C 15,6 km/h (3 Bft)
12.06.2013 15:00 25,0 C 45 % 1016,6 hPa 0,0 l/m 8,2 km/h (2 Bft) SW 12,1 C 24,5 C 17,2 km/h (3 Bft)
12.06.2013 16:00 24,0 C 48 % 1016,4 hPa 0,0 l/m 7,2 km/h (2 Bft) S-SW 12,3 C 23,6 C 14,0 km/h (3 Bft)
12.06.2013 17:00 23,7 C 53 % 1016,2 hPa 0,0 l/m 5,6 km/h (2 Bft) S-SW 13,6 C 23,6 C 11,5 km/h (2 Bft)
12.06.2013 18:00 23,6 C 56 % 1016,0 hPa 0,0 l/m 6,0 km/h (2 Bft) S 14,3 C 23,5 C 12,1 km/h (2 Bft)
12.06.2013 19:00 22,6 C 60 % 1015,8 hPa 0,0 l/m 3,7 km/h (1 Bft) S-SW 14,4 C 22,6 C 8,0 km/h (2 Bft)
12.06.2013 20:00 22,1 C 63 % 1015,7 hPa 0,0 l/m 2,3 km/h (1 Bft) S-SW 14,8 C 22,1 C 5,3 km/h (1 Bft)
12.06.2013 21:00 21,4 C 67 % 1015,7 hPa 0,0 l/m 3,4 km/h (1 Bft) SW 14,9 C 21,4 C 6,9 km/h (2 Bft)
12.06.2013 22:00 20,7 C 69 % 1015,8 hPa 0,0 l/m 2,2 km/h (1 Bft) S 14,7 C 20,7 C 5,3 km/h (1 Bft)
12.06.2013 23:00 19,9 C 73 % 1015,9 hPa 0,0 l/m 2,3 km/h (1 Bft) SW 14,8 C 19,9 C 5,2 km/h (1 Bft)
13.06.2013 00:00 19,0 C 76 % 1015,9 hPa 0,0 l/m 1,6 km/h (1 Bft) S-SW 14,7 C 19,0 C 4,4 km/h (1 Bft)
13.06.2013 01:00 18,2 C 79 % 1015,5 hPa 0,0 l/m 1,8 km/h (1 Bft) S-SW 14,6 C 18,2 C 5,2 km/h (1 Bft)
13.06.2013 02:00 17,9 C 81 % 1015,1 hPa 0,0 l/m 2,9 km/h (1 Bft) SW 14,7 C 17,9 C 6,5 km/h (2 Bft)
13.06.2013 03:00 17,9 C 82 % 1014,7 hPa 0,0 l/m 2,7 km/h (1 Bft) S-SW 14,7 C 17,9 C 6,5 km/h (2 Bft)
13.06.2013 04:00 17,7 C 83 % 1014,4 hPa 0,0 l/m 2,7 km/h (1 Bft) S-SW 14,7 C 17,7 C 6,4 km/h (2 Bft)
13.06.2013 05:00 17,6 C 84 % 1014,2 hPa 0,0 l/m 2,6 km/h (1 Bft) SW 14,8 C 17,6 C 5,3 km/h (1 Bft)
13.06.2013 06:00 18,0 C 84 % 1014,0 hPa 0,0 l/m 4,6 km/h (1 Bft) SW 15,2 C 17,9 C 10,1 km/h (2 Bft)
13.06.2013 07:00 18,7 C 83 % 1013,8 hPa 0,0 l/m 5,9 km/h (2 Bft) SW 15,7 C 18,7 C 12,8 km/h (3 Bft)
13.06.2013 08:00 20,0 C 80 % 1013,9 hPa 0,0 l/m 6,8 km/h (2 Bft) SW 16,4 C 19,8 C 14,4 km/h (3 Bft)
13.06.2013 09:00 21,1 C 77 % 1013,7 hPa 0,0 l/m 8,5 km/h (2 Bft) S-SW 16,9 C 20,3 C 18,5 km/h (3 Bft)
13.06.2013 10:00 21,9 C 73 % 1013,3 hPa 0,0 l/m 9,0 km/h (2 Bft) SW 16,9 C 21,1 C 18,0 km/h (3 Bft)
13.06.2013 11:00 22,8 C 70 % 1012,9 hPa 0,0 l/m 7,8 km/h (2 Bft) SW 16,9 C 22,4 C 17,2 km/h (3 Bft)
13.06.2013 12:00 23,7 C 67 % 1012,6 hPa 0,0 l/m 8,1 km/h (2 Bft) S 17,1 C 23,1 C 17,4 km/h (3 Bft)
13.06.2013 13:00 24,1 C 64 % 1012,3 hPa 0,0 l/m 7,2 km/h (2 Bft) SW 16,8 C 23,8 C 15,6 km/h (3 Bft)
13.06.2013 14:00 24,7 C 62 % 1011,8 hPa 0,0 l/m 7,8 km/h (2 Bft) SW 16,9 C 24,4 C 17,0 km/h (3 Bft)
13.06.2013 15:00 25,1 C 61 % 1011,4 hPa 0,0 l/m 8,3 km/h (2 Bft) S 17,0 C 24,7 C 17,7 km/h (3 Bft)
Min-Datum _ 12.06.13 12.06.13 10.06.13 - 10.06.13 - 12.06.13 12.06.13 10.06.13
_ Min-Zeit 04:45 13:30 04:10 - 02:10 - 04:45 04:45 02:10
Minimum _ 5,8 C 40 % 1009,7 hPa - 0,0 km/h (0 Bft) - 5,1 C 5,8 C 0,0 km/h (0 Bft)
Max-Datum _ 13.06.13 11.06.13 12.06.13 10.06.13 11.06.13 - 13.06.13 13.06.13 10.06.13
_ Max-Zeit 15:10 05:05 08:20 07:05 11:11 - 15:10 15:10 12:35
Maximum _ 25,4 C 97 % 1018,7 hPa 0,2 l/m 11,3 km/h
SW (2 Bft)
- 17,6 C 25,4 C 27,4 km/h
N-NW (5 Bft)
Durchschnitt _ 16,9 C 73 % 1014,5 hPa #0,2 l/m 3,3 km/h (1 Bft) SW 11,4 C 16,8 C 7,2 km/h (2 Bft)